Terminal Aerodrome Forecast
Issued by NWS

Home | Current Version | Previous Version | Text Only | Print | Product List | Glossary On
Versions: 1 2 3 4 5 6 7 8 9 10 11 12 13 14 15 16
000
FTUS45 KTFX 201122
TAFGTF

KGTF 201122Z 2012/2112 VRB05KT P6SM SCT090 BKN150
      TEMPO 2012/2014 VRB15G30KT TSRA BKN060CB
     FM201600 29010KT P6SM SCT060 BKN120
     FM210200 02006KT P6SM -SHRA SCT035 BKN060=

USA.gov is the U.S. government's official web portal to all federal, state and local government web resources and services.